Time;durP1;ratioP1;P1;durP2;ratioP2;P2;SDS_P1;SDS_P2;PMS_P1;PMS_P2;Temp;Humidity;BMP_temperature;BMP_pressure;BME280_temperature;BME280_humidity;BME280_pressure;Samples;Min_cycle;Max_cycle;Signal;HPM_P1;HPM_P2
2023/08/05 00:01:51;;;;;;;12.45;4.90;;;;;;;19.46;100.00;99407.31;5136675;28;20431;-62
2023/08/05 00:04:17;;;;;;;14.23;3.70;;;;;;;19.44;100.00;99423.63;5138889;27;20042;-62
2023/08/05 00:06:42;;;;;;;10.38;3.70;;;;;;;19.35;100.00;99448.38;5140319;28;20065;-63
2023/08/05 00:09:08;;;;;;;9.52;4.10;;;;;;;19.31;100.00;99448.44;5140644;27;20134;-62
2023/08/05 00:11:34;;;;;;;8.57;4.57;;;;;;;19.31;100.00;99442.09;5140252;28;20047;-61
2023/08/05 00:14:00;;;;;;;8.77;4.13;;;;;;;19.29;100.00;99450.81;5140546;28;20304;-60
2023/08/05 00:16:27;;;;;;;8.32;3.60;;;;;;;19.20;100.00;99448.56;5140107;28;20123;-59
2023/08/05 00:18:53;;;;;;;11.27;4.22;;;;;;;19.20;100.00;99433.88;5140471;28;20388;-60
2023/08/05 00:21:20;;;;;;;7.97;3.72;;;;;;;19.18;100.00;99441.84;5140317;28;20062;-60
2023/08/05 00:23:46;;;;;;;6.18;3.63;;;;;;;19.14;100.00;99435.56;5140211;28;20413;-61
2023/08/05 00:26:12;;;;;;;6.10;3.63;;;;;;;19.15;100.00;99439.91;5139975;28;20055;-59
2023/08/05 00:28:38;;;;;;;8.70;4.43;;;;;;;19.10;100.00;99445.94;5140021;28;20146;-58
2023/08/05 00:31:07;;;;;;;9.40;4.32;;;;;;;19.16;100.00;99447.84;5140172;28;20081;-59
2023/08/05 00:33:34;;;;;;;14.57;6.78;;;;;;;19.11;100.00;99450.28;5139886;28;20137;-62
2023/08/05 00:36:00;;;;;;;11.35;4.25;;;;;;;19.11;100.00;99442.72;5140180;28;20101;-61
2023/08/05 00:38:26;;;;;;;15.60;5.43;;;;;;;19.08;100.00;99440.78;5139727;27;20078;-62
2023/08/05 00:40:52;;;;;;;14.77;4.88;;;;;;;19.02;100.00;99448.00;5140160;28;20057;-63
2023/08/05 00:43:18;;;;;;;11.38;6.00;;;;;;;18.97;100.00;99442.91;5139659;28;20504;-61
2023/08/05 00:45:44;;;;;;;9.55;4.40;;;;;;;18.94;100.00;99438.19;5140007;28;20085;-61
2023/08/05 00:48:10;;;;;;;10.73;4.53;;;;;;;18.93;100.00;99448.50;5139527;28;20075;-60
2023/08/05 00:50:38;;;;;;;17.67;5.35;;;;;;;18.85;100.00;99458.09;5139541;28;20080;-60
2023/08/05 00:53:04;;;;;;;11.93;4.85;;;;;;;18.88;100.00;99450.94;5139541;28;20142;-62
2023/08/05 00:55:30;;;;;;;9.77;3.42;;;;;;;18.76;100.00;99450.28;5139725;28;20154;-63
2023/08/05 00:57:57;;;;;;;13.10;5.35;;;;;;;18.84;100.00;99437.09;5139590;28;20050;-62
2023/08/05 01:00:23;;;;;;;13.27;5.35;;;;;;;18.83;100.00;99446.63;5139554;28;20051;-60
2023/08/05 01:02:48;;;;;;;18.90;7.78;;;;;;;18.72;100.00;99445.94;5139721;28;20130;-64
2023/08/05 01:05:15;;;;;;;11.07;4.35;;;;;;;18.71;100.00;99447.13;5139243;28;20442;-64
2023/08/05 01:07:43;;;;;;;8.43;4.20;;;;;;;18.77;100.00;99456.63;5139636;27;20047;-60
2023/08/05 01:10:09;;;;;;;11.27;6.00;;;;;;;18.75;100.00;99451.47;5139370;28;20084;-63
2023/08/05 01:12:35;;;;;;;18.48;5.03;;;;;;;18.73;100.00;99453.88;5139671;28;20074;-62
2023/08/05 01:15:01;;;;;;;13.25;5.50;;;;;;;18.83;100.00;99451.38;5138644;27;20411;-60
2023/08/05 01:17:27;;;;;;;17.52;4.68;;;;;;;18.76;100.00;99452.25;5139617;28;20046;-59
2023/08/05 01:19:53;;;;;;;8.07;4.93;;;;;;;18.72;100.00;99468.16;5139248;28;20047;-59
2023/08/05 01:22:26;;;;;;;12.73;5.15;;;;;;;18.60;100.00;99458.34;5139313;28;20055;-63
2023/08/05 01:24:58;;;;;;;8.40;4.10;;;;;;;18.65;100.00;99457.88;5139251;28;20378;-63
2023/08/05 01:27:26;;;;;;;25.63;6.55;;;;;;;18.62;100.00;99455.94;5139219;28;20051;-63
2023/08/05 01:29:53;;;;;;;16.48;5.78;;;;;;;18.59;100.00;99462.31;5139137;28;20138;-63
2023/08/05 01:32:20;;;;;;;13.32;4.88;;;;;;;18.52;100.00;99460.38;5138945;28;20468;-62
2023/08/05 01:34:47;;;;;;;16.17;7.72;;;;;;;18.47;100.00;99463.63;5139338;28;20047;-63
2023/08/05 01:37:13;;;;;;;9.48;4.22;;;;;;;18.46;100.00;99462.06;5138847;27;20078;-60
2023/08/05 01:39:39;;;;;;;11.50;6.25;;;;;;;18.43;100.00;99468.44;5139259;28;20301;-62
2023/08/05 01:42:06;;;;;;;12.40;5.93;;;;;;;18.46;100.00;99462.06;5138663;28;20058;-60
2023/08/05 01:44:32;;;;;;;13.98;7.25;;;;;;;18.37;100.00;99464.50;5138723;28;20051;-62
2023/08/05 01:46:58;;;;;;;9.32;4.93;;;;;;;18.30;100.00;99454.25;5138889;28;20358;-60
2023/08/05 01:49:24;;;;;;;9.82;4.22;;;;;;;18.18;100.00;99449.22;5138547;28;20244;-59
2023/08/05 01:51:50;;;;;;;11.00;6.03;;;;;;;18.16;100.00;99423.06;5138890;28;20047;-60
2023/08/05 01:54:16;;;;;;;10.43;4.60;;;;;;;17.97;100.00;99408.56;5138713;28;20083;-60
2023/08/05 01:56:42;;;;;;;6.72;4.25;;;;;;;18.22;100.00;99400.00;5138811;28;20061;-64
2023/08/05 01:59:08;;;;;;;14.25;4.68;;;;;;;18.28;100.00;99406.69;5138392;28;20047;-61
2023/08/05 02:01:42;;;;;;;10.60;4.68;;;;;;;18.37;100.00;99417.31;5138839;28;20072;-60
2023/08/05 02:04:08;;;;;;;;;;;;;;;18.39;100.00;99433.56;5138760;28;20427;-59
2023/08/05 02:06:34;;;;;;;13.63;4.00;;;;;;;18.45;100.00;99446.59;5138670;28;20014;-61
2023/08/05 02:09:00;;;;;;;6.95;3.85;;;;;;;18.46;100.00;99450.94;5138147;27;20051;-59
2023/08/05 02:11:26;;;;;;;14.80;4.68;;;;;;;18.65;100.00;99457.88;5138685;28;20043;-59
2023/08/05 02:13:51;;;;;;;12.90;4.18;;;;;;;18.76;100.00;99474.47;5138271;28;20047;-60
2023/08/05 02:16:17;;;;;;;12.15;4.18;;;;;;;18.86;100.00;99490.25;5138376;28;20047;-62
2023/08/05 02:18:45;;;;;;;10.65;5.82;;;;;;;18.90;100.00;99502.09;5138156;28;20393;-63
2023/08/05 02:21:11;;;;;;;16.40;5.88;;;;;;;18.99;100.00;99507.97;5138086;28;20051;-63
2023/08/05 02:23:37;;;;;;;9.00;4.00;;;;;;;19.06;100.00;99521.00;5138411;28;20054;-60
2023/08/05 02:26:03;;;;;;;16.00;5.57;;;;;;;19.12;100.00;99522.09;5136988;27;20101;-62
2023/08/05 02:28:29;;;;;;;8.32;4.50;;;;;;;19.14;100.00;99513.38;5138242;28;20137;-63
2023/08/05 02:30:55;;;;;;;12.02;5.38;;;;;;;19.13;100.00;99514.56;5138014;28;20137;-61
2023/08/05 02:33:21;;;;;;;11.77;5.35;;;;;;;19.13;100.00;99523.69;5138363;28;20051;-61
2023/08/05 02:35:48;;;;;;;9.52;4.75;;;;;;;19.18;100.00;99517.66;5137917;28;20082;-59
2023/08/05 02:38:14;;;;;;;12.82;4.55;;;;;;;18.70;100.00;99515.78;5138263;27;20046;-60
2023/08/05 02:40:40;;;;;;;8.93;4.05;;;;;;;18.75;100.00;99509.00;5137734;28;20047;-62
2023/08/05 02:43:06;;;;;;;11.60;5.07;;;;;;;18.95;100.00;99509.19;5137977;28;20097;-63
2023/08/05 02:45:32;;;;;;;10.15;5.22;;;;;;;18.97;100.00;99507.59;5137927;28;20141;-62
2023/08/05 02:47:58;;;;;;;9.07;4.10;;;;;;;19.06;100.00;99518.22;5137618;28;20488;-63
2023/08/05 02:50:24;;;;;;;10.25;5.57;;;;;;;19.03;100.00;99517.06;5137907;28;20142;-63
2023/08/05 02:52:50;;;;;;;5.38;4.10;;;;;;;18.93;100.00;99508.84;5137782;28;20078;-61
2023/08/05 02:55:16;;;;;;;8.43;4.20;;;;;;;18.78;100.00;99494.28;5137764;28;20055;-62
2023/08/05 02:57:42;;;;;;;8.35;4.07;;;;;;;19.05;100.00;99505.50;5137624;28;20047;-63
2023/08/05 03:00:10;;;;;;;10.13;4.28;;;;;;;19.12;100.00;99518.53;5137781;28;20385;-61
2023/08/05 03:02:36;;;;;;;12.10;5.07;;;;;;;19.31;100.00;99534.59;5137562;28;20088;-63
2023/08/05 03:05:01;;;;;;;11.23;5.60;;;;;;;19.39;100.00;99540.84;5137268;28;20204;-62
2023/08/05 03:07:28;;;;;;;10.93;6.10;;;;;;;19.46;100.00;99538.78;5137361;27;20378;-60
2023/08/05 03:09:54;;;;;;;11.80;4.65;;;;;;;19.86;100.00;99539.09;5137785;28;20389;-63
2023/08/05 03:12:21;;;;;;;5.53;4.10;;;;;;;19.77;100.00;99535.25;5137292;28;20047;-62
2023/08/05 03:14:46;;;;;;;11.98;3.95;;;;;;;19.86;100.00;99533.53;5137523;28;20413;-60
2023/08/05 03:17:12;;;;;;;14.45;3.90;;;;;;;19.81;100.00;99530.44;5137317;28;20051;-59
2023/08/05 03:19:38;;;;;;;12.18;3.63;;;;;;;19.70;100.00;99541.72;5137381;28;20103;-62
2023/08/05 03:22:04;;;;;;;8.82;3.85;;;;;;;19.72;100.00;99542.84;5137305;28;20079;-63
2023/08/05 03:24:30;;;;;;;11.93;4.88;;;;;;;19.75;100.00;99546.78;5137324;28;20051;-63
2023/08/05 03:26:57;;;;;;;10.55;4.10;;;;;;;19.88;100.00;99553.38;5137256;28;20433;-64
2023/08/05 03:29:23;;;;;;;8.63;4.25;;;;;;;19.94;100.00;99548.91;5137110;28;20424;-64
2023/08/05 03:31:49;;;;;;;10.40;4.57;;;;;;;19.95;100.00;99547.69;5137440;28;20057;-64
2023/08/05 03:34:15;;;;;;;9.82;4.68;;;;;;;20.03;100.00;99536.50;5137087;28;20083;-64
2023/08/05 03:36:41;;;;;;;11.75;4.78;;;;;;;19.95;100.00;99536.56;5137541;28;20315;-59
2023/08/05 03:39:06;;;;;;;7.68;3.70;;;;;;;20.02;100.00;99541.25;5140158;27;20074;-59
2023/08/05 03:41:33;;;;;;;7.88;4.75;;;;;;;20.09;100.00;99541.16;5140919;28;20082;-60
2023/08/05 03:44:01;;;;;;;11.73;5.28;;;;;;;20.17;100.00;99531.47;5140920;28;20183;-60
2023/08/05 03:46:27;;;;;;;15.70;5.72;;;;;;;20.23;100.00;99529.03;5140745;28;20132;-64
2023/08/05 03:48:53;;;;;;;9.23;4.70;;;;;;;20.28;100.00;99509.03;5140891;28;20323;-63
2023/08/05 03:51:18;;;;;;;7.85;3.10;;;;;;;20.11;100.00;99510.13;5140511;28;20420;-63
2023/08/05 03:53:45;;;;;;;10.63;4.80;;;;;;;20.25;100.00;99509.88;5140668;28;20142;-61
2023/08/05 03:56:11;;;;;;;13.73;4.38;;;;;;;20.42;100.00;99502.44;5140518;28;20082;-62
2023/08/05 03:58:36;;;;;;;5.90;3.53;;;;;;;20.52;100.00;99482.00;5140694;28;20443;-62
2023/08/05 04:01:04;;;;;;;5.00;3.40;;;;;;;20.39;100.00;99459.53;5140407;28;20137;-62
2023/08/05 04:03:30;;;;;;;12.80;4.68;;;;;;;20.58;100.00;99469.16;5140782;28;20146;-64
2023/08/05 04:05:56;;;;;;;14.10;3.17;;;;;;;20.60;100.00;99429.75;5140195;28;20409;-63
2023/08/05 04:08:22;;;;;;;8.80;3.90;;;;;;;20.79;100.00;99426.22;5140664;27;20050;-64
2023/08/05 04:10:48;;;;;;;18.00;5.15;;;;;;;20.88;100.00;99403.34;5140468;28;20078;-63
2023/08/05 04:13:16;;;;;;;7.80;3.95;;;;;;;21.10;100.00;99357.09;5140050;28;20089;-61
2023/08/05 04:15:42;;;;;;;14.65;5.40;;;;;;;21.19;100.00;99319.47;5140423;28;20146;-60
2023/08/05 04:18:10;;;;;;;6.20;3.67;;;;;;;21.29;100.00;99260.69;5140085;28;20420;-63
2023/08/05 04:20:38;;;;;;;8.27;4.28;;;;;;;21.21;100.00;99242.53;5140409;28;20175;-60
2023/08/05 04:23:06;;;;;;;14.88;5.10;;;;;;;21.28;100.00;99234.00;5140114;28;20054;-61
2023/08/05 04:25:32;;;;;;;6.47;3.90;;;;;;;21.28;100.00;99224.84;5140143;28;20059;-62
2023/08/05 04:27:58;;;;;;;14.10;5.05;;;;;;;21.28;100.00;99191.41;5140049;28;20078;-60
2023/08/05 04:30:24;;;;;;;8.35;3.25;;;;;;;21.31;100.00;99191.31;5140281;28;20051;-61
2023/08/05 04:32:50;;;;;;;6.35;3.47;;;;;;;21.14;100.00;99226.78;5139889;28;20138;-60
2023/08/05 04:35:17;;;;;;;5.13;2.88;;;;;;;21.28;100.00;99194.97;5140315;28;20071;-63
2023/08/05 04:37:43;;;;;;;5.35;3.13;;;;;;;21.34;100.00;99184.06;5139587;27;20127;-62
2023/08/05 04:40:11;;;;;;;8.40;3.67;;;;;;;21.35;100.00;99135.47;5139983;28;20138;-63
2023/08/05 04:42:36;;;;;;;8.85;3.10;;;;;;;21.31;100.00;99149.47;5139986;28;20305;-59
2023/08/05 04:45:03;;;;;;;6.88;4.03;;;;;;;21.57;100.00;99085.47;5139518;28;20086;-60
2023/08/05 04:47:29;;;;;;;4.57;2.78;;;;;;;21.81;100.00;98986.31;5139997;28;20066;-61
2023/08/05 04:49:55;;;;;;;12.15;3.30;;;;;;;22.12;100.00;98876.88;5138722;27;20051;-61
2023/08/05 04:52:22;;;;;;;6.63;2.83;;;;;;;23.15;100.00;98698.31;5139962;28;20087;-60
2023/08/05 04:54:48;;;;;;;5.72;2.50;;;;;;;24.06;100.00;98218.91;5139635;28;20078;-60
2023/08/05 04:57:15;;;;;;;3.88;2.80;;;;;;;25.04;100.00;98027.41;5139759;28;20493;-61
2023/08/05 04:59:41;;;;;;;5.65;2.40;;;;;;;26.07;100.00;98112.25;5139497;28;20089;-62
2023/08/05 05:02:07;;;;;;;3.13;1.90;;;;;;;26.27;100.00;98289.19;5139855;28;20051;-59
2023/08/05 05:04:33;;;;;;;4.13;2.10;;;;;;;26.83;100.00;98298.22;5139266;28;20047;-61
2023/08/05 05:06:59;;;;;;;4.30;2.30;;;;;;;27.55;100.00;98378.16;5139055;27;20138;-62
2023/08/05 05:09:26;;;;;;;6.63;1.80;;;;;;;27.79;100.00;98467.97;5139246;28;20057;-65
2023/08/05 05:11:54;;;;;;;3.22;2.60;;;;;;;28.02;100.00;98528.84;5139314;28;20142;-60
2023/08/05 05:14:20;;;;;;;5.72;2.30;;;;;;;28.78;100.00;98555.78;5139223;28;20047;-60
2023/08/05 05:16:46;;;;;;;3.80;2.47;;;;;;;28.89;100.00;98561.50;5139116;28;20104;-63
2023/08/05 05:19:12;;;;;;;5.60;3.20;;;;;;;29.16;100.00;98531.09;5139196;28;20384;-65
2023/08/05 05:21:37;;;;;;;5.35;2.45;;;;;;;29.72;100.00;98647.88;5138824;28;20350;-65
2023/08/05 05:24:04;;;;;;;5.32;2.38;;;;;;;29.56;100.00;98614.66;5139174;28;20142;-64
2023/08/05 05:26:31;;;;;;;4.78;2.15;;;;;;;29.97;100.00;98701.88;5138557;28;20050;-61
2023/08/05 05:28:57;;;;;;;4.40;2.10;;;;;;;30.37;100.00;98714.09;5139108;28;20483;-62
2023/08/05 05:31:22;;;;;;;5.38;2.65;;;;;;;30.72;100.00;98696.59;5138693;28;20086;-62
2023/08/05 05:33:51;;;;;;;2.60;1.90;;;;;;;30.61;100.00;98728.50;5139175;28;20050;-62
2023/08/05 05:36:17;;;;;;;3.92;2.08;;;;;;;30.96;100.00;98724.41;5138563;28;20210;-59
2023/08/05 05:38:43;;;;;;;2.38;1.90;;;;;;;31.06;100.00;98727.75;5138674;27;20481;-59
2023/08/05 05:41:08;;;;;;;3.72;1.85;;;;;;;30.82;100.00;98765.81;5139077;28;20086;-58
2023/08/05 05:43:35;;;;;;;5.63;1.95;;;;;;;30.72;100.00;98764.50;5138929;28;20069;-59
2023/08/05 05:46:02;;;;;;;2.33;1.45;;;;;;;29.76;100.00;98786.06;5138960;28;20134;-58
2023/08/05 05:48:30;;;;;;;4.30;1.60;;;;;;;30.34;100.00;98777.31;5138983;28;20057;-59
2023/08/05 05:50:56;;;;;;;4.60;1.50;;;;;;;30.06;100.00;98774.34;5139066;28;20043;-62
2023/08/05 05:53:22;;;;;;;4.25;1.77;;;;;;;30.88;100.00;98785.66;5138654;28;20135;-63
2023/08/05 05:55:51;;;;;;;2.22;1.70;;;;;;;30.99;100.00;98797.00;5138851;28;20066;-62
2023/08/05 05:58:16;;;;;;;2.67;1.63;;;;;;;30.60;100.00;98806.16;5138579;28;20345;-58
2023/08/05 06:00:43;;;;;;;4.65;1.50;;;;;;;30.24;100.00;98796.56;5137970;27;20047;-58
2023/08/05 06:03:09;;;;;;;5.20;1.33;;;;;;;29.94;100.00;98782.03;5138120;28;20142;-59
2023/08/05 06:05:35;;;;;;;3.60;1.60;;;;;;;31.76;100.00;98820.09;5138523;28;20145;-58
2023/08/05 06:08:01;;;;;;;5.25;1.60;;;;;;;31.10;100.00;98813.97;5138592;27;20074;-59
2023/08/05 06:10:27;;;;;;;2.95;1.50;;;;;;;32.71;100.00;98835.94;5138280;28;20057;-61
2023/08/05 06:12:52;;;;;;;3.30;1.50;;;;;;;31.52;100.00;98839.69;5138386;28;20093;-61
2023/08/05 06:15:18;;;;;;;3.33;1.92;;;;;;;30.78;100.00;98818.31;5138438;28;20051;-62
2023/08/05 06:17:46;;;;;;;3.35;1.63;;;;;;;29.24;100.00;98781.34;5138559;28;20075;-62
2023/08/05 06:20:12;;;;;;;3.17;1.65;;;;;;;29.53;100.00;98771.78;5138174;28;20116;-59
2023/08/05 06:22:38;;;;;;;4.03;1.40;;;;;;;27.67;100.00;98743.03;5138552;28;20192;-59
2023/08/05 06:25:04;;;;;;;4.70;1.77;;;;;;;27.78;100.00;98723.47;5137973;28;20047;-59
2023/08/05 06:27:30;;;;;;;2.13;1.73;;;;;;;26.96;100.00;98674.75;5138383;28;20055;-58
2023/08/05 06:29:56;;;;;;;4.97;1.60;;;;;;;26.87;100.00;98627.03;5138112;28;20440;-58
2023/08/05 06:32:22;;;;;;;4.60;1.83;;;;;;;26.41;100.00;98574.19;5138468;28;20047;-58
2023/08/05 06:34:49;;;;;;;3.67;1.98;;;;;;;26.26;100.00;98558.13;5137833;28;20050;-61
2023/08/05 06:37:15;;;;;;;8.80;2.08;;;;;;;26.66;100.00;98589.69;5137981;27;20138;-60
2023/08/05 06:39:41;;;;;;;5.72;2.25;;;;;;;26.14;100.00;98545.16;5137843;28;20332;-60
2023/08/05 06:42:07;;;;;;;2.78;1.90;;;;;;;25.95;100.00;98502.44;5137959;28;20143;-61
2023/08/05 06:44:33;;;;;;;5.18;1.92;;;;;;;25.38;100.00;98418.53;5137873;28;20134;-61
2023/08/05 06:46:59;;;;;;;3.38;2.10;;;;;;;25.33;100.00;98365.94;5137745;28;20059;-60
2023/08/05 06:49:24;;;;;;;3.75;1.90;;;;;;;25.74;100.00;98377.28;5138121;28;20089;-59
2023/08/05 06:51:51;;;;;;;3.95;2.20;;;;;;;25.17;100.00;98335.56;5137756;28;20081;-60
2023/08/05 06:54:17;;;;;;;5.95;2.30;;;;;;;25.02;100.00;98251.41;5137993;28;20448;-59
2023/08/05 06:56:43;;;;;;;2.50;2.00;;;;;;;25.05;100.00;98270.84;5137602;28;20086;-62
2023/08/05 06:59:09;;;;;;;10.00;2.97;;;;;;;24.98;100.00;98248.81;5138006;28;20082;-65
2023/08/05 07:01:35;;;;;;;7.25;2.30;;;;;;;24.82;100.00;98278.09;5137486;28;20047;-65
2023/08/05 07:04:01;;;;;;;5.55;2.30;;;;;;;24.89;100.00;98276.94;5137951;28;20047;-63
2023/08/05 07:06:27;;;;;;;4.05;1.60;;;;;;;24.47;100.00;98247.19;5137655;28;20051;-62
2023/08/05 07:08:53;;;;;;;3.22;2.10;;;;;;;24.66;100.00;98186.13;5137596;27;20306;-61
2023/08/05 07:11:19;;;;;;;6.57;2.10;;;;;;;24.19;100.00;98159.81;5137699;28;20200;-61
2023/08/05 07:13:45;;;;;;;4.00;2.20;;;;;;;24.51;100.00;98165.75;5137172;27;20054;-60
2023/08/05 07:16:11;;;;;;;8.00;1.92;;;;;;;23.69;100.00;98078.47;5137451;28;20142;-59
2023/08/05 07:18:37;;;;;;;3.42;1.77;;;;;;;23.47;100.00;98060.00;5137238;28;20146;-60
2023/08/05 07:21:03;;;;;;;5.40;1.98;;;;;;;23.49;100.00;98018.34;5137622;28;20051;-60
2023/08/05 07:23:29;;;;;;;4.70;2.10;;;;;;;23.32;100.00;98010.88;5137261;28;20444;-62
2023/08/05 07:25:59;;;;;;;7.28;2.10;;;;;;;23.06;100.00;98016.19;5137619;28;20411;-63
2023/08/05 07:28:26;;;;;;;4.50;2.00;;;;;;;22.91;100.00;98024.53;5137171;28;20047;-61
2023/08/05 07:31:02;;;;;;;5.82;2.25;;;;;;;23.22;100.00;98012.97;5137607;28;20112;-62
2023/08/05 07:33:27;;;;;;;4.05;2.10;;;;;;;22.92;100.00;98054.78;5137371;28;20365;-63
2023/08/05 07:35:53;;;;;;;2.65;1.88;;;;;;;23.11;100.00;98043.50;5136980;28;20047;-64
2023/08/05 07:38:23;;;;;;;4.70;2.63;;;;;;;22.97;100.00;98073.72;5137316;27;20047;-63
2023/08/05 07:40:49;;;;;;;3.65;2.35;;;;;;;22.62;100.00;98137.66;5137193;28;20407;-60
2023/08/05 07:43:18;;;;;;;5.20;2.38;;;;;;;22.69;100.00;98159.69;5137339;28;20142;-60
2023/08/05 07:45:43;;;;;;;5.72;1.92;;;;;;;22.41;100.00;98340.50;5136907;28;20104;-61
2023/08/05 07:48:11;;;;;;;5.63;2.28;;;;;;;22.42;100.00;98444.59;5137185;28;20370;-61
2023/08/05 07:50:37;;;;;;;2.75;2.30;;;;;;;22.55;100.00;98465.56;5136919;28;20103;-65
2023/08/05 07:53:05;;;;;;;11.80;3.80;;;;;;;22.37;100.00;98612.78;5136813;28;20050;-60
2023/08/05 07:55:32;;;;;;;4.28;2.33;;;;;;;22.54;100.00;98701.47;5136822;28;20054;-64
2023/08/05 07:57:58;;;;;;;2.67;2.20;;;;;;;22.33;100.00;98693.91;5137221;28;20473;-61
2023/08/05 08:00:26;;;;;;;6.15;2.40;;;;;;;22.41;100.00;98817.28;5137002;28;20058;-61
2023/08/05 08:02:52;;;;;;;9.52;2.47;;;;;;;22.04;100.00;98873.53;5136625;28;20431;-63
2023/08/05 08:05:19;;;;;;;3.33;2.00;;;;;;;21.99;100.00;98910.41;5136880;28;20083;-63
2023/08/05 08:07:46;;;;;;;3.03;2.30;;;;;;;22.20;100.00;98958.44;5136477;27;20051;-63
2023/08/05 08:10:13;;;;;;;5.22;2.60;;;;;;;22.37;100.00;98876.06;5136900;28;20358;-60
2023/08/05 08:12:38;;;;;;;7.82;2.90;;;;;;;22.10;100.00;98915.63;5136758;28;20196;-60
2023/08/05 08:15:06;;;;;;;2.10;2.00;;;;;;;22.19;100.00;98882.28;5136953;28;20137;-63
2023/08/05 08:17:32;;;;;;;4.05;2.15;;;;;;;22.24;100.00;98929.16;5136394;28;20105;-60
2023/08/05 08:19:58;;;;;;;5.30;2.22;;;;;;;22.38;100.00;98905.53;5136900;28;20142;-60
2023/08/05 08:22:24;;;;;;;4.00;2.50;;;;;;;22.61;100.00;98921.09;5136511;28;20051;-59
2023/08/05 08:24:50;;;;;;;7.00;2.65;;;;;;;21.97;100.00;98931.63;5138164;27;20143;-60
2023/08/05 08:27:16;;;;;;;3.83;2.10;;;;;;;22.07;100.00;98894.19;5139800;28;20055;-61
2023/08/05 08:29:42;;;;;;;3.90;2.15;;;;;;;21.95;100.00;98884.59;5140143;28;20078;-62
2023/08/05 08:32:08;;;;;;;6.88;2.50;;;;;;;22.23;100.00;98893.31;5140144;28;20081;-63
2023/08/05 08:34:34;;;;;;;4.05;2.35;;;;;;;22.15;100.00;98830.53;5140060;28;20405;-63
2023/08/05 08:37:00;;;;;;;3.28;2.08;;;;;;;22.29;100.00;98730.34;5140024;27;20142;-62
2023/08/05 08:39:26;;;;;;;1.95;1.75;;;;;;;22.76;100.00;98595.25;5139947;28;20058;-65
2023/08/05 08:41:54;;;;;;;2.80;2.10;;;;;;;22.74;100.00;98485.16;5139867;28;20043;-63
2023/08/05 08:44:20;;;;;;;6.07;2.15;;;;;;;22.99;100.00;98422.63;5139659;28;20142;-59
2023/08/05 08:46:47;;;;;;;4.43;1.90;;;;;;;23.26;100.00;98254.06;5140039;28;20145;-64
2023/08/05 08:49:16;;;;;;;4.72;2.10;;;;;;;23.28;100.00;98178.84;5139608;28;20047;-62
2023/08/05 08:51:46;;;;;;;2.05;1.73;;;;;;;23.57;100.00;98141.06;5140042;28;20061;-63
2023/08/05 08:54:14;;;;;;;6.93;2.40;;;;;;;23.37;100.00;98159.22;5139399;28;20047;-61
2023/08/05 08:56:40;;;;;;;12.70;2.28;;;;;;;23.51;100.00;98126.94;5139467;28;20055;-61
2023/08/05 08:59:06;;;;;;;4.53;1.90;;;;;;;23.31;100.00;98124.00;5139487;28;20087;-64
2023/08/05 09:01:33;;;;;;;3.58;2.25;;;;;;;22.62;100.00;98164.81;5139566;28;20051;-62
2023/08/05 09:04:00;;;;;;;2.35;1.92;;;;;;;22.29;100.00;98293.97;5139810;28;20401;-63
2023/08/05 09:06:27;;;;;;;5.45;1.92;;;;;;;22.59;100.00;98358.50;5139535;28;20113;-64
2023/08/05 09:08:53;;;;;;;2.00;1.73;;;;;;;22.17;100.00;98532.97;5139631;27;20138;-61
2023/08/05 09:11:19;;;;;;;6.95;1.88;;;;;;;21.76;100.00;98762.88;5139297;28;20101;-62
2023/08/05 09:13:45;;;;;;;7.75;2.30;;;;;;;22.08;100.00;98787.66;5139603;28;20051;-62
2023/08/05 09:16:13;;;;;;;5.75;1.88;;;;;;;21.67;100.00;98872.38;5139255;28;20083;-63
2023/08/05 09:18:43;;;;;;;7.43;2.15;;;;;;;21.33;100.00;99185.31;5139622;28;20062;-62
2023/08/05 09:21:09;;;;;;;9.77;2.47;;;;;;;21.18;100.00;99310.31;5139212;28;20043;-63
2023/08/05 09:23:44;;;;;;;2.90;2.15;;;;;;;20.69;100.00;99427.19;5139546;28;20142;-63
2023/08/05 09:26:11;;;;;;;3.55;2.25;;;;;;;20.37;100.00;99438.91;5139293;28;20131;-59
2023/08/05 09:28:38;;;;;;;3.13;2.33;;;;;;;20.29;100.00;99438.22;5139268;28;20149;-61
2023/08/05 09:31:15;;;;;;;3.70;2.53;;;;;;;19.91;100.00;99418.97;5139140;28;20408;-63
2023/08/05 09:33:42;;;;;;;6.65;2.67;;;;;;;19.67;100.00;99393.13;5138994;28;20420;-66
2023/08/05 09:36:08;;;;;;;6.18;1.98;;;;;;;19.73;100.00;99352.50;5138911;27;20066;-62
2023/08/05 09:38:34;;;;;;;7.10;2.92;;;;;;;19.54;100.00;99305.91;5138738;27;20047;-60
2023/08/05 09:41:01;;;;;;;6.03;2.80;;;;;;;19.61;100.00;99269.63;5139305;28;20078;-61
2023/08/05 09:43:33;;;;;;;4.40;2.95;;;;;;;19.82;100.00;99249.03;5138872;28;20051;-62
2023/08/05 09:46:02;;;;;;;6.35;3.00;;;;;;;19.82;100.00;99276.84;5139153;28;20061;-65
2023/08/05 09:48:34;;;;;;;6.45;2.90;;;;;;;20.09;100.00;99267.59;5138942;28;20047;-65
2023/08/05 09:51:03;;;;;;;6.50;2.75;;;;;;;19.98;100.00;99296.41;5138677;28;20061;-65
2023/08/05 09:53:34;;;;;;;6.45;3.63;;;;;;;20.11;100.00;99282.66;5139004;28;20051;-62
2023/08/05 09:56:00;;;;;;;11.50;3.47;;;;;;;20.03;100.00;99289.59;5138768;28;20075;-63
2023/08/05 09:58:27;;;;;;;10.95;3.20;;;;;;;20.00;100.00;99332.19;5138895;28;20388;-64
2023/08/05 10:00:55;;;;;;;7.15;3.13;;;;;;;19.23;100.00;99296.88;5138583;28;20134;-66
2023/08/05 10:03:21;;;;;;;32.80;4.28;;;;;;;19.38;100.00;99205.69;5138819;28;20051;-62
2023/08/05 10:05:49;;;;;;;13.02;6.30;;;;;;;18.87;100.00;99124.38;5138403;28;20047;-64
2023/08/05 10:08:16;;;;;;;6.72;3.60;;;;;;;18.97;100.00;99090.09;5138851;27;20123;-62
2023/08/05 10:10:44;;;;;;;7.82;4.00;;;;;;;19.20;100.00;99075.38;5138401;28;20074;-61
2023/08/05 10:13:16;;;;;;;7.97;4.03;;;;;;;19.38;100.00;99083.38;5138500;28;20059;-65
2023/08/05 10:15:46;;;;;;;8.57;4.53;;;;;;;19.46;100.00;99082.03;5138528;28;20051;-64
2023/08/05 10:18:15;;;;;;;11.73;5.05;;;;;;;19.44;100.00;99092.81;5138452;28;20158;-61
2023/08/05 10:20:41;;;;;;;8.52;4.50;;;;;;;19.63;100.00;99119.88;5138480;28;20066;-65
2023/08/05 10:23:09;;;;;;;8.15;4.90;;;;;;;19.66;100.00;99173.81;5138364;28;20047;-64
2023/08/05 10:25:40;;;;;;;8.88;4.85;;;;;;;19.75;100.00;99215.78;5138396;28;20069;-64
2023/08/05 10:28:07;;;;;;;8.60;4.13;;;;;;;19.86;100.00;99246.16;5138068;28;20047;-66
2023/08/05 10:30:40;;;;;;;16.25;8.40;;;;;;;19.89;100.00;99254.47;5138480;28;20047;-62
2023/08/05 10:33:06;;;;;;;11.10;5.50;;;;;;;19.86;100.00;99240.59;5138018;28;20047;-62
2023/08/05 10:35:39;;;;;;;13.75;5.32;;;;;;;19.90;100.00;99244.91;5138390;28;20294;-64
2023/08/05 10:38:16;;;;;;;12.45;7.00;;;;;;;19.81;100.00;99233.56;5137834;27;20047;-66
2023/08/05 10:40:48;;;;;;;22.90;6.63;;;;;;;19.81;100.00;99232.78;5137991;28;20046;-62
2023/08/05 10:43:30;;;;;;;12.05;5.60;;;;;;;20.00;100.00;99220.88;5138090;28;20043;-65
2023/08/05 10:45:56;;;;;;;10.05;5.15;;;;;;;19.93;100.00;99219.03;5137819;28;20047;-66
2023/08/05 10:48:29;;;;;;;10.60;5.45;;;;;;;19.83;100.00;99213.66;5137300;27;20054;-64
2023/08/05 10:50:55;;;;;;;9.82;5.35;;;;;;;19.74;100.00;99189.19;5137756;28;20050;-62
2023/08/05 10:53:22;;;;;;;8.90;5.47;;;;;;;19.70;100.00;99171.78;5138022;28;20051;-64
2023/08/05 10:55:50;;;;;;;10.77;5.82;;;;;;;19.92;100.00;99170.13;5137523;28;20047;-63
2023/08/05 10:58:20;;;;;;;16.92;6.90;;;;;;;19.94;100.00;99166.94;5137904;28;20138;-64
2023/08/05 11:00:55;;;;;;;7.68;5.05;;;;;;;19.89;100.00;99164.66;5137844;28;20061;-66
2023/08/05 11:03:26;;;;;;;9.48;5.70;;;;;;;19.92;100.00;99152.66;5137782;28;20142;-63
2023/08/05 11:05:54;;;;;;;12.73;6.07;;;;;;;19.93;100.00;99140.34;5137612;28;20134;-61
2023/08/05 11:08:21;;;;;;;9.30;5.50;;;;;;;20.19;100.00;99146.94;5137541;27;20309;-62
2023/08/05 11:10:48;;;;;;;9.23;7.60;;;;;;;20.06;100.00;99155.16;5137727;28;20145;-63
2023/08/05 11:13:15;;;;;;;10.93;5.63;;;;;;;20.01;100.00;99138.19;5137457;28;20051;-64
2023/08/05 11:15:41;;;;;;;11.23;6.28;;;;;;;20.05;100.00;99122.97;5137695;28;20058;-63
2023/08/05 11:18:07;;;;;;;15.32;5.82;;;;;;;20.39;100.00;99139.34;5137366;28;20133;-67
2023/08/05 11:20:35;;;;;;;10.98;6.45;;;;;;;20.59;100.00;99147.69;5137747;28;20142;-63